Accueil
METAR-TAF:

METAR-TAF

Aéroports :

Yakima, Washington, États-Unis

latitude: 46-33-51N, longitude: 120-32-01W, altitude: 333 m

Observation

Le bulletin a été fait il y a 29 minutes, à 17:53 UTC
Vent calme
Température 2°C
Humidité 69%
Pression 1028 hPa
Visibilité: 16.1 km
Ciel clair

METAR: KYKM 191753Z 00000KT 10SM CLR 02/M03 A3035 RMK AO2 SLP292 T00221033 10022 21083 52004

Heure: 10:22 (18:22 UTC)

Prévision

Le bulletin a été fait il y a 52 minutes, à 17:30 UTC
Prévision valable du 19 à 18 UTC au 20 à 18 UTC
Vent 3 kt de direction variable
Visibilité: 10 km
Ciel clair
A partir de 20 à 0900 UTC
Vent 5 kt de ouest
Visibilité: 8.0 km
Ciel clair
brume
A partir de 20 à 1200 UTC
Vent 4 kt de direction variable
Visibilité: 3.2 km
Ciel clair
brume

TAF: KYKM 191730Z 1918/2018 VRB03KT P6SM SKC FM200900 27005KT 5SM BR SKC FM201200 VRB04KT 2SM BR SKC

Observations et prévisions météorologiques de plus de 4000 aéroports (messages METAR et TAF).

Les stations disponibles sont représentées par des disques jaunes et rouges sur la carte.

Passer la souris dessus pour voir le nom de la station.

Cliquer dessus pour voir les observations et prévisions météorologiques.

Pour changer de carte: cliquez sur les boutons verts avec une croix noire pour zoomer, sur le bouton vert avec un tiret pour effectuer un zoom arrière, ou sur les flèches vertes pour les cartes adjacentes.


METAR-TAF: